Atbasar, Kazakhstan
Current Conditions -  °F | °C
As of 10:00 AM on Friday 28 Nov 2014 (Local Time) from UACK Reporting Station
Clear Clear  
Wind Chill: -18°   Ceiling: Unl
Heat Index: -18°   Visibility: 6mi
Dew Point: -26°   Wind: 2mph
Humidity: 70%   Direction: 270°W
Pressure: 30.68"   Gusts: NA
Location:  51.82°N, 68.35°E
Report Text: UACK 280400Z 27001MPS CAVOK M28/M32 Q1039 R20/010060 NOSIG RMKQFE755/1007
Loading
Personal Weather Stations






























Interactive Weather Map New forecast layout! Learn more

10-Day Weather Forecast

Advertisements
Track Severe Weather on mobile